Aérodrome :
LOGIN :

S'inscrire | Disclaimer

   EN    FR    IT 

 










Légende :    VFR   VFR Marginal   IFR   IFR Intensif   IFR Très Intensif
Visi : 
Plafond : 
>= 8 km
>= 3000ft
5 à 8 km
1000 à 3000 ft
1500m à 5 km
500 à 1000 ft
800 à 1500m
200 à 500 ft
< 800m
< 200 ft
Symboles :   Orages  Brouillard  Fortes neiges  Fortes précipitations  Vent > 20 kt
SIGMETs :   Divers  Orages  Givrage  Turbulence  Onde Orograph.  Cendres Volcan.






- Altitude de l'aérodrome : 26 ft
- Code IATA : BIA


LFKB - Bastia

DERNIER METAR :
  • 190330Z AUTO 22008KT CAVOK 06/M01 Q1022 NOSIG

METARs EXPIRÉS :
  • 190300Z AUTO 22008KT CAVOK 07/M00 Q1022 NOSIG
  • 190230Z AUTO 22007KT CAVOK 06/M00 Q1022 NOSIG
  • 190200Z AUTO 23008KT CAVOK 08/01 Q1022 NOSIG
  • 190130Z AUTO 23009KT CAVOK 08/00 Q1022
  • 190100Z AUTO 23007KT CAVOK 08/00 Q1022 NOSIG

TAF TAF LFKB
Valide du 19 à 03h jusqu'au 20 à 03h UTC


190200Z 1903/2003 24005KT CAVOK TX13/1912Z TN06/1903Z
TEMPO 1903/1907 BKN026
BECMG 1909/1912 04010KT SCT030
BECMG 1914/1917 BKN026
TEMPO 1918/2003 04015KT RA BKN030
ATIS : +33 4 95 59 19 40



MET'MAP, la Météo Aéronautique d'un coup d'oeil ! - Copyright ORBIFLY Décembre 2007 - Disclaimer

ORBIFLY MET'MAP TEAM :

Programmation & Développement : Alexandra Zaïnal
Sur une idée originale de : Baudouin d'Aumeries
Assistance à la programmation : Marc-Olivier Méhu
Soutien technique & logistique : Manuel Goepfert

Contact : metmap@orbifly.com




SOURCES & CREDITS :

   NOAA